Mexico City, DIF, Mexico
Current Conditions -  °F | °C
As of 7:46 AM on Thursday 23 Oct 2014 (Local Time) from MMMX Reporting Station
Broken Clouds Broken Clouds  
Wind Chill: 55°   Ceiling: 2000
Heat Index: 55°   Visibility: 8mi
Dew Point: 48°   Wind: 5mph
Humidity: 77%   Direction: 20°NNE
Pressure: 30.34"   Gusts: NA
Location:  19.43°N, 99.14°W
Report Text: MMMX 231246Z 02004KT 8SM BKN020 BKN080 13/09 A3034 NOSIG RMK 8/530 HZY
Loading
Personal Weather Stations






























Interactive Weather Map
Tropical Storm Tracking
New forecast layout! Learn more

10-Day Weather Forecast

Advertisements
Track Severe Weather on mobile